Ahmadi, Kuwait

1:06 AM AST on October 02, 2014 (GMT +0300)
Kuwait International | Change Station
CLOSE
Current Station
Airport
Location: Kuwait,
Elevation: 180 ft
Nearby Weather Stations

Elev 180 ft 29.22 °N, 47.98 °E | Updated 6 minutes ago

Clear
Clear
81 °F
Feels Like 85 °F
N
7
Wind Variable Wind from SSE

Today
High -- | Low -- °F
--% Chance of Precip.
Yesterday
High -- | Low -- °F
Precip. -- in
5:40 AM 5:32 PM
First Quarter, 51% visible
Pressure 29.83 in
Visibility 5.0 miles
Clouds Clear
Heat Index 85 °F
Dew Point 73 °F
Humidity 79%
Rainfall 0.00 in
Snow Depth Not available.
UV 0 out of 12
Pollen Not available.
Air Quality Not available.
Flu Activity Not available.
METAR OKBK 012200Z 16006KT 8000 SKC 27/23 Q1010 NOSIG

More Conditions Fewer Conditions

Pressure 29.83 in
Visibility 5.0 miles
Clouds Clear
Heat Index 85 °F
Dew Point 73 °F
Humidity 79%
Rainfall 0.00 in
Snow Depth Not available.
UV 0 out of 12
Pollen Not available.
Air Quality Not available.
Flu Activity Not available.
METAR OKBK 012200Z 16006KT 8000 SKC 27/23 Q1010 NOSIG

More Conditions Fewer Conditions

10-Day Weather Forecast

Almanac

Astronomy

Oct. 02, 2014 Rise Set
Actual Time 5:40 AM AST 5:32 PM AST
Civil Twilight 5:17 AM AST 5:56 PM AST
Nautical Twilight 4:49 AM AST 6:23 PM AST
Astronomical Twilight 4:22 AM AST 6:51 PM AST
Moon 12:54 PM AST (10/2) No Moon Set
Length of Visible Light 12h 38m
Length of Day
11h 51m
Tomorrow will be 1m 43s shorter.
First Quarter, 51% of the Moon is Illuminated
Oct 1
First Quarter
Oct 8
Full
Oct 15
Last Quarter
Oct 23
New
Oct 30
First Quarter

Yesterday's Extremes

Country Highs Country Lows

Community

WunderPhotos

Upload Photos

1,758,057 photos uploaded!

WunderBlogs® & News

By Dr. Jeff Masters
Director of Meteorology, Weather Underground
By Kari Strenfel
Meteorologist, Weather Underground
By Christopher C. Burt
Weather Historian, Weather Underground
October 1, 2014
October 1, 2014
October 1, 2014

Nearby

Snow Depth

Not available.

Earthquake Activity

City Distance Mag. Time & Date
No recent earthquake activity has been reported nearby.
Minimum magnitude displayed is 2.5.

Coastal Water Temperatures

Place Temperature
No Stations Reporting

Nearby Weather Stations